Time;durP1;ratioP1;P1;durP2;ratioP2;P2;SDS_P1;SDS_P2;PMS_P1;PMS_P2;Temp;Humidity;BMP_temperature;BMP_pressure;BME280_temperature;BME280_humidity;BME280_pressure;Samples;Min_cycle;Max_cycle;Signal;HPM_P1;HPM_P2
2023/04/13 00:00:14;;;;;;;0.00;0.00;;;;;;;;;;5011418;28;20045;-86
2023/04/13 00:02:40;;;;;;;0.00;0.00;;;;;;;;;;4996701;28;20037;-86
2023/04/13 00:05:08;;;;;;;0.00;0.00;;;;;;;;;;4996796;28;20045;-87
2023/04/13 00:07:36;;;;;;;0.00;0.00;;;;;;;;;;4996892;28;20049;-87
2023/04/13 00:10:03;;;;;;;0.05;0.05;;;;;;;;;;4980232;28;20045;-87
2023/04/13 00:12:29;;;;;;;0.00;0.00;;;;;;;;;;4980514;28;20457;-86
2023/04/13 00:14:55;;;;;;;0.00;0.00;;;;;;;;;;4980434;28;20111;-86
2023/04/13 00:17:23;;;;;;;0.00;0.00;;;;;;;;;;4997168;28;20362;-86
2023/04/13 00:19:52;;;;;;;0.25;0.10;;;;;;;;;;4980399;28;20062;-86
2023/04/13 00:22:18;;;;;;;0.70;0.10;;;;;;;;;;4980199;28;20049;-86
2023/04/13 00:24:44;;;;;;;0.00;0.00;;;;;;;;;;4979996;28;20065;-87
2023/04/13 00:27:11;;;;;;;0.00;0.00;;;;;;;;;;4980509;28;20042;-85
2023/04/13 00:29:37;;;;;;;0.57;0.57;;;;;;;;;;4996154;28;20045;-86
2023/04/13 00:32:03;;;;;;;0.00;0.00;;;;;;;;;;4995851;28;20057;-86
2023/04/13 00:34:29;;;;;;;0.00;0.00;;;;;;;;;;4996719;28;20132;-86
2023/04/13 00:36:55;;;;;;;0.00;0.00;;;;;;;;;;4996097;28;20098;-86
2023/04/13 00:39:22;;;;;;;0.00;0.00;;;;;;;;;;4979727;28;20500;-86
2023/04/13 00:41:50;;;;;;;0.00;0.00;;;;;;;;;;4995968;28;20053;-87
2023/04/13 00:44:18;;;;;;;0.00;0.00;;;;;;;;;;4996003;28;20034;-86
2023/04/13 00:46:49;;;;;;;0.00;0.00;;;;;;;;;;4979570;28;20449;-86
2023/04/13 00:49:15;;;;;;;0.00;0.00;;;;;;;;;;4979754;28;20042;-87
2023/04/13 00:51:43;;;;;;;0.00;0.00;;;;;;;;;;4995769;28;20389;-87
2023/04/13 00:54:12;;;;;;;0.00;0.00;;;;;;;;;;4979331;28;20044;-87
2023/04/13 00:56:38;;;;;;;0.00;0.00;;;;;;;;;;4995753;28;20045;-86
2023/04/13 00:59:06;;;;;;;0.00;0.00;;;;;;;;;;4995900;28;20436;-86
2023/04/13 01:01:32;;;;;;;0.00;0.00;;;;;;;;;;4995214;28;20072;-87
2023/04/13 01:03:58;;;;;;;0.00;0.00;;;;;;;;;;4979531;28;20038;-87
2023/04/13 01:06:32;;;;;;;0.00;0.00;;;;;;;;;;4995554;28;20100;-86
2023/04/13 01:09:10;;;;;;;0.00;0.00;;;;;;;;;;4996383;28;20034;-87
2023/04/13 01:11:40;;;;;;;0.00;0.00;;;;;;;;;;4995439;28;20470;-86
2023/04/13 01:14:16;;;;;;;0.00;0.00;;;;;;;;;;4979818;28;20393;-86
2023/04/13 01:16:47;;;;;;;0.00;0.00;;;;;;;;;;4992547;28;20037;-86
2023/04/13 01:19:34;;;;;;;0.00;0.00;;;;;;;;;;4995765;28;20054;-86
2023/04/13 01:22:01;;;;;;;0.00;0.00;;;;;;;;;;4982072;28;20085;-87
2023/04/13 01:24:39;;;;;;;0.00;0.00;;;;;;;;;;4995332;28;20057;-86
2023/04/13 01:27:24;;;;;;;0.00;0.00;;;;;;;;;;4994923;28;20084;-86
2023/04/13 01:29:50;;;;;;;0.00;0.00;;;;;;;;;;4962911;28;20095;-86
2023/04/13 01:32:17;;;;;;;0.00;0.00;;;;;;;;;;4994965;28;20164;-87
2023/04/13 01:34:44;;;;;;;0.00;0.00;;;;;;;;;;4995341;28;20072;-86
2023/04/13 01:37:10;;;;;;;0.00;0.00;;;;;;;;;;4995321;28;20397;-85
2023/04/13 01:39:37;;;;;;;0.00;0.00;;;;;;;;;;4978885;28;20046;-87
2023/04/13 01:42:03;;;;;;;0.00;0.00;;;;;;;;;;4978762;28;20053;-86
2023/04/13 01:44:31;;;;;;;0.00;0.00;;;;;;;;;;4995282;28;20095;-86
2023/04/13 01:47:01;;;;;;;0.00;0.00;;;;;;;;;;4995194;28;20066;-86
2023/04/13 01:49:27;;;;;;;0.00;0.00;;;;;;;;;;4979525;28;20374;-86
2023/04/13 01:51:55;;;;;;;0.00;0.00;;;;;;;;;;4995533;28;20038;-86
2023/04/13 01:54:26;;;;;;;0.00;0.00;;;;;;;;;;4995710;28;20046;-86
2023/04/13 01:56:52;;;;;;;0.00;0.00;;;;;;;;;;4995670;28;20049;-86
2023/04/13 01:59:21;;;;;;;0.00;0.00;;;;;;;;;;4995160;28;20049;-86
2023/04/13 02:01:47;;;;;;;0.00;0.00;;;;;;;;;;4978707;28;20049;-86
2023/04/13 02:04:14;;;;;;;0.00;0.00;;;;;;;;;;4995091;28;20077;-86
2023/04/13 02:06:41;;;;;;;0.00;0.00;;;;;;;;;;4994742;28;20039;-86
2023/04/13 02:09:07;;;;;;;0.00;0.00;;;;;;;;;;4979065;28;20050;-85
2023/04/13 02:11:33;;;;;;;0.00;0.00;;;;;;;;;;4995345;28;20053;-86
2023/04/13 02:13:59;;;;;;;0.00;0.00;;;;;;;;;;4982718;28;20046;-86
2023/04/13 02:16:27;;;;;;;0.00;0.00;;;;;;;;;;4998648;28;20121;-85
2023/04/13 02:18:53;;;;;;;0.00;0.00;;;;;;;;;;4999032;28;20053;-85
2023/04/13 02:21:19;;;;;;;0.00;0.00;;;;;;;;;;4998545;28;20141;-86
2023/04/13 02:23:45;;;;;;;0.00;0.00;;;;;;;;;;4982485;28;20120;-86
2023/04/13 02:26:13;;;;;;;0.00;0.00;;;;;;;;;;4998965;28;20125;-85
2023/04/13 02:28:39;;;;;;;0.00;0.00;;;;;;;;;;4998620;28;20129;-85
2023/04/13 02:31:06;;;;;;;0.00;0.00;;;;;;;;;;4982295;28;20049;-85
2023/04/13 02:33:32;;;;;;;0.00;0.00;;;;;;;;;;4998259;28;20061;-86
2023/04/13 02:35:58;;;;;;;0.00;0.00;;;;;;;;;;4998335;28;20433;-85
2023/04/13 02:38:25;;;;;;;0.00;0.00;;;;;;;;;;4998582;28;20084;-85
2023/04/13 02:40:55;;;;;;;0.00;0.00;;;;;;;;;;4982713;28;20132;-86
2023/04/13 02:43:21;;;;;;;0.00;0.00;;;;;;;;;;4981747;28;20038;-86
2023/04/13 02:45:48;;;;;;;0.00;0.00;;;;;;;;;;4998409;28;20428;-85
2023/04/13 02:48:14;;;;;;;0.00;0.00;;;;;;;;;;4998071;28;20041;-85
2023/04/13 02:50:40;;;;;;;0.00;0.00;;;;;;;;;;4982338;28;20042;-85
2023/04/13 02:53:06;;;;;;;0.00;0.00;;;;;;;;;;4981761;28;20100;-85
2023/04/13 02:55:32;;;;;;;0.00;0.00;;;;;;;;;;4981960;28;20041;-85
2023/04/13 02:57:58;;;;;;;0.00;0.00;;;;;;;;;;4998163;28;20042;-85
2023/04/13 03:00:24;;;;;;;0.00;0.00;;;;;;;;;;4982247;28;20045;-85
2023/04/13 03:02:51;;;;;;;0.00;0.00;;;;;;;;;;4981376;28;20077;-87
2023/04/13 03:05:18;;;;;;;0.00;0.00;;;;;;;;;;4998115;28;20069;-85
2023/04/13 03:07:44;;;;;;;0.00;0.00;;;;;;;;;;4981570;28;20434;-85
2023/04/13 03:10:11;;;;;;;0.00;0.00;;;;;;;;;;4998025;28;20091;-85
2023/04/13 03:12:37;;;;;;;0.00;0.00;;;;;;;;;;4998056;28;20572;-85
2023/04/13 03:15:06;;;;;;;0.00;0.00;;;;;;;;;;4997925;28;20397;-85
2023/04/13 03:17:32;;;;;;;0.00;0.00;;;;;;;;;;4981604;28;20100;-85
2023/04/13 03:19:59;;;;;;;0.00;0.00;;;;;;;;;;4998078;28;20034;-85
2023/04/13 03:22:29;;;;;;;0.00;0.00;;;;;;;;;;4997040;28;20042;-86
2023/04/13 03:24:55;;;;;;;0.00;0.00;;;;;;;;;;4996990;28;20052;-85
2023/04/13 03:27:21;;;;;;;0.00;0.00;;;;;;;;;;4997311;28;20080;-86
2023/04/13 03:29:48;;;;;;;0.00;0.00;;;;;;;;;;4997694;28;20067;-85
2023/04/13 03:32:14;;;;;;;0.00;0.00;;;;;;;;;;4997260;28;20123;-85
2023/04/13 03:34:42;;;;;;;0.00;0.00;;;;;;;;;;4997535;28;20092;-85
2023/04/13 03:37:09;;;;;;;0.00;0.00;;;;;;;;;;4981066;28;20453;-85
2023/04/13 03:39:35;;;;;;;0.00;0.00;;;;;;;;;;4997435;28;20042;-86
2023/04/13 03:42:02;;;;;;;0.00;0.00;;;;;;;;;;4996968;28;20042;-85
2023/04/13 03:44:29;;;;;;;0.00;0.00;;;;;;;;;;4997533;28;20046;-85
2023/04/13 03:46:55;;;;;;;0.00;0.00;;;;;;;;;;4996961;28;20176;-85
2023/04/13 03:49:21;;;;;;;0.00;0.00;;;;;;;;;;4997151;28;20069;-85
2023/04/13 03:51:47;;;;;;;0.00;0.00;;;;;;;;;;4997314;28;20034;-85
2023/04/13 03:54:13;;;;;;;0.00;0.00;;;;;;;;;;4996779;28;20478;-85
2023/04/13 03:56:39;;;;;;;0.00;0.00;;;;;;;;;;4997143;28;20083;-86
2023/04/13 03:59:06;;;;;;;0.00;0.00;;;;;;;;;;4996905;28;20366;-86
2023/04/13 04:01:32;;;;;;;0.00;0.00;;;;;;;;;;4996899;28;20497;-85
2023/04/13 04:03:58;;;;;;;0.00;0.00;;;;;;;;;;4996561;28;20065;-85
2023/04/13 04:06:25;;;;;;;0.00;0.00;;;;;;;;;;4980756;28;20481;-86
2023/04/13 04:08:51;;;;;;;0.00;0.00;;;;;;;;;;4980420;28;20370;-86
2023/04/13 04:11:18;;;;;;;0.00;0.00;;;;;;;;;;4996509;28;20037;-87
2023/04/13 04:13:44;;;;;;;0.00;0.00;;;;;;;;;;4964089;28;20124;-86
2023/04/13 04:16:10;;;;;;;0.00;0.00;;;;;;;;;;4996889;28;20071;-86
2023/04/13 04:18:37;;;;;;;0.00;0.00;;;;;;;;;;4996352;28;20045;-87
2023/04/13 04:21:03;;;;;;;0.00;0.00;;;;;;;;;;4997132;28;20049;-86
2023/04/13 04:23:29;;;;;;;0.00;0.00;;;;;;;;;;4995922;28;20061;-86
2023/04/13 04:25:58;;;;;;;0.00;0.00;;;;;;;;;;4996426;28;20045;-86
2023/04/13 04:28:29;;;;;;;0.00;0.00;;;;;;;;;;4979979;28;20049;-86
2023/04/13 04:30:55;;;;;;;0.00;0.00;;;;;;;;;;4996633;28;20038;-86
2023/04/13 04:33:24;;;;;;;0.00;0.00;;;;;;;;;;4996263;28;20160;-87
2023/04/13 04:35:50;;;;;;;0.00;0.00;;;;;;;;;;4979728;28;20042;-86
2023/04/13 04:38:20;;;;;;;0.00;0.00;;;;;;;;;;4996108;28;20042;-86
2023/04/13 04:40:47;;;;;;;0.00;0.00;;;;;;;;;;4979883;28;20041;-86
2023/04/13 04:43:13;;;;;;;0.00;0.00;;;;;;;;;;4979459;28;20053;-86
2023/04/13 04:45:44;;;;;;;0.00;0.00;;;;;;;;;;4980006;28;20458;-85
2023/04/13 04:48:10;;;;;;;0.00;0.00;;;;;;;;;;4979943;28;20393;-85
2023/04/13 04:50:36;;;;;;;0.00;0.00;;;;;;;;;;4979766;28;20073;-87
2023/04/13 04:53:02;;;;;;;0.00;0.00;;;;;;;;;;4995719;28;20045;-86
2023/04/13 04:55:28;;;;;;;0.00;0.00;;;;;;;;;;4995787;28;20042;-85
2023/04/13 04:57:55;;;;;;;0.00;0.00;;;;;;;;;;4996138;28;20135;-86
2023/04/13 05:00:21;;;;;;;0.00;0.00;;;;;;;;;;4979734;28;20038;-86
2023/04/13 05:02:49;;;;;;;0.00;0.00;;;;;;;;;;4995337;28;20054;-86
2023/04/13 05:05:15;;;;;;;0.00;0.00;;;;;;;;;;4979461;28;20033;-86
2023/04/13 05:07:41;;;;;;;0.00;0.00;;;;;;;;;;4979172;28;20049;-86
2023/04/13 05:10:08;;;;;;;0.00;0.00;;;;;;;;;;4995926;28;20041;-86
2023/04/13 05:12:34;;;;;;;0.00;0.00;;;;;;;;;;4979268;28;20049;-86
2023/04/13 05:15:00;;;;;;;0.00;0.00;;;;;;;;;;4995447;28;20079;-86
2023/04/13 05:17:27;;;;;;;0.00;0.00;;;;;;;;;;4995504;28;20129;-86
2023/04/13 05:19:53;;;;;;;0.00;0.00;;;;;;;;;;4979133;28;20046;-85
2023/04/13 05:22:20;;;;;;;0.00;0.00;;;;;;;;;;4979041;28;20041;-86
2023/04/13 05:24:46;;;;;;;0.00;0.00;;;;;;;;;;4979123;28;20378;-86
2023/04/13 05:27:14;;;;;;;0.00;0.00;;;;;;;;;;4981518;28;20030;-87
2023/04/13 05:29:40;;;;;;;0.00;0.00;;;;;;;;;;4995282;28;20041;-87
2023/04/13 05:32:07;;;;;;;0.00;0.00;;;;;;;;;;4978662;28;20100;-86
2023/04/13 05:34:34;;;;;;;0.00;0.00;;;;;;;;;;4978405;28;20468;-87
2023/04/13 05:37:00;;;;;;;0.00;0.00;;;;;;;;;;4978999;28;20165;-88
2023/04/13 05:39:27;;;;;;;0.00;0.00;;;;;;;;;;4978496;28;20124;-87
2023/04/13 05:41:53;;;;;;;0.00;0.00;;;;;;;;;;4978562;28;20193;-87
2023/04/13 05:44:19;;;;;;;0.00;0.00;;;;;;;;;;4978697;28;20221;-87
2023/04/13 05:46:45;;;;;;;0.00;0.00;;;;;;;;;;4978282;28;20544;-88
2023/04/13 05:49:11;;;;;;;0.00;0.00;;;;;;;;;;4994695;28;20073;-88
2023/04/13 05:51:38;;;;;;;0.00;0.00;;;;;;;;;;4978739;28;20038;-87
2023/04/13 05:54:04;;;;;;;0.00;0.00;;;;;;;;;;4994881;28;20180;-89
2023/04/13 05:56:30;;;;;;;0.00;0.00;;;;;;;;;;4978623;28;20041;-87
2023/04/13 05:58:57;;;;;;;0.00;0.00;;;;;;;;;;4978692;28;20489;-88
2023/04/13 06:01:23;;;;;;;0.00;0.00;;;;;;;;;;4994707;28;20088;-88
2023/04/13 06:03:50;;;;;;;0.00;0.00;;;;;;;;;;4978180;28;20077;-87
2023/04/13 06:06:17;;;;;;;0.00;0.00;;;;;;;;;;4978729;28;20042;-88
2023/04/13 06:08:43;;;;;;;0.00;0.00;;;;;;;;;;4978556;28;20122;-88
2023/04/13 06:11:10;;;;;;;0.00;0.00;;;;;;;;;;4994742;28;20113;-88
2023/04/13 06:13:36;;;;;;;0.00;0.00;;;;;;;;;;4994462;28;20049;-87
2023/04/13 06:16:02;;;;;;;0.00;0.00;;;;;;;;;;4978070;28;20042;-88
2023/04/13 06:18:28;;;;;;;0.00;0.00;;;;;;;;;;4981550;28;20192;-87
2023/04/13 06:20:55;;;;;;;0.00;0.00;;;;;;;;;;5007478;28;20151;-87
2023/04/13 06:23:21;;;;;;;0.00;0.00;;;;;;;;;;4989756;28;20128;-87
2023/04/13 06:25:48;;;;;;;0.00;0.00;;;;;;;;;;4994868;28;20041;-91
2023/04/13 06:28:14;;;;;;;0.00;0.00;;;;;;;;;;4994519;28;20041;-88
2023/04/13 06:30:40;;;;;;;0.00;0.00;;;;;;;;;;4978561;28;20343;-89
2023/04/13 06:33:06;;;;;;;0.00;0.00;;;;;;;;;;4978080;28;20053;-88
2023/04/13 06:35:32;;;;;;;0.00;0.00;;;;;;;;;;4978372;28;20042;-87
2023/04/13 06:38:00;;;;;;;0.00;0.00;;;;;;;;;;4994588;28;20049;-88
2023/04/13 06:40:26;;;;;;;0.00;0.00;;;;;;;;;;4978380;28;20128;-90
2023/04/13 06:42:53;;;;;;;0.00;0.00;;;;;;;;;;5008494;28;20041;-88
2023/04/13 06:45:19;;;;;;;0.00;0.00;;;;;;;;;;4997464;28;20041;-88
2023/04/13 06:47:46;;;;;;;0.00;0.00;;;;;;;;;;4997769;28;20103;-87
2023/04/13 06:50:15;;;;;;;0.00;0.00;;;;;;;;;;4997753;28;20037;-89
2023/04/13 06:52:42;;;;;;;0.00;0.00;;;;;;;;;;4997828;28;20072;-87
2023/04/13 06:55:08;;;;;;;0.00;0.00;;;;;;;;;;5013883;28;20053;-88
2023/04/13 06:57:34;;;;;;;0.00;0.00;;;;;;;;;;5014600;28;20045;-88
2023/04/13 07:00:00;;;;;;;0.00;0.00;;;;;;;;;;5017473;28;20220;-88
2023/04/13 07:02:27;;;;;;;0.00;0.00;;;;;;;;;;5017299;28;20045;-87
2023/04/13 07:04:53;;;;;;;0.00;0.00;;;;;;;;;;5001020;28;20036;-88
2023/04/13 07:07:19;;;;;;;0.00;0.00;;;;;;;;;;5001066;28;20069;-88
2023/04/13 07:09:45;;;;;;;0.00;0.00;;;;;;;;;;5001031;28;20042;-88
2023/04/13 07:12:11;;;;;;;0.00;0.00;;;;;;;;;;5001361;28;20546;-87
2023/04/13 07:14:39;;;;;;;0.00;0.00;;;;;;;;;;5000924;28;20071;-88
2023/04/13 07:17:05;;;;;;;0.00;0.00;;;;;;;;;;5017456;28;20053;-87
2023/04/13 07:19:32;;;;;;;0.00;0.00;;;;;;;;;;5017223;28;20406;-88
2023/04/13 07:21:58;;;;;;;0.00;0.00;;;;;;;;;;5001893;28;20442;-88
2023/04/13 07:24:26;;;;;;;0.00;0.00;;;;;;;;;;5017627;28;20477;-87
2023/04/13 07:26:52;;;;;;;0.00;0.00;;;;;;;;;;5001990;28;20132;-88
2023/04/13 07:29:18;;;;;;;0.00;0.00;;;;;;;;;;5000518;28;20073;-87
2023/04/13 07:31:44;;;;;;;0.00;0.00;;;;;;;;;;5000970;28;20034;-87
2023/04/13 07:34:11;;;;;;;0.00;0.00;;;;;;;;;;5000127;28;20500;-88
2023/04/13 07:36:37;;;;;;;0.00;0.00;;;;;;;;;;5017112;28;20108;-87
2023/04/13 07:39:03;;;;;;;0.00;0.00;;;;;;;;;;5000579;28;20030;-88
2023/04/13 07:41:29;;;;;;;0.00;0.00;;;;;;;;;;5000404;28;20045;-87
2023/04/13 07:43:55;;;;;;;0.00;0.00;;;;;;;;;;5016785;28;20132;-87
2023/04/13 07:46:25;;;;;;;0.00;0.00;;;;;;;;;;5016401;28;20037;-87
2023/04/13 07:48:52;;;;;;;0.05;0.00;;;;;;;;;;5000561;28;20384;-87
2023/04/13 07:51:18;;;;;;;0.00;0.00;;;;;;;;;;5000010;28;20116;-88
2023/04/13 07:53:44;;;;;;;0.00;0.00;;;;;;;;;;5016842;28;20103;-88
2023/04/13 07:56:10;;;;;;;0.00;0.00;;;;;;;;;;4999937;28;20528;-88
2023/04/13 07:58:36;;;;;;;0.00;0.00;;;;;;;;;;5016218;28;20152;-88
2023/04/13 08:01:02;;;;;;;0.00;0.00;;;;;;;;;;4999897;28;20044;-88
2023/04/13 08:03:35;;;;;;;0.00;0.00;;;;;;;;;;5016204;28;20521;-87
2023/04/13 08:06:01;;;;;;;0.00;0.00;;;;;;;;;;5016461;28;20045;-87
2023/04/13 08:08:28;;;;;;;0.00;0.00;;;;;;;;;;5000115;28;20041;-87
2023/04/13 08:10:54;;;;;;;0.00;0.00;;;;;;;;;;4998906;28;20038;-87
2023/04/13 08:13:22;;;;;;;0.00;0.00;;;;;;;;;;5016270;28;20516;-87
2023/04/13 08:15:48;;;;;;;0.00;0.00;;;;;;;;;;4999432;28;20041;-87
2023/04/13 08:18:14;;;;;;;0.00;0.00;;;;;;;;;;5000151;28;20045;-90
2023/04/13 08:20:40;;;;;;;0.00;0.00;;;;;;;;;;4999731;28;20037;-88
2023/04/13 08:23:06;;;;;;;0.00;0.00;;;;;;;;;;4999609;28;20477;-89
2023/04/13 08:25:38;;;;;;;0.00;0.00;;;;;;;;;;4999653;28;20049;-88
2023/04/13 08:28:04;;;;;;;0.00;0.00;;;;;;;;;;4999677;28;20061;-88
2023/04/13 08:30:33;;;;;;;0.00;0.00;;;;;;;;;;4999334;28;20041;-88
2023/04/13 08:32:59;;;;;;;0.00;0.00;;;;;;;;;;5015615;28;20057;-88
2023/04/13 08:35:25;;;;;;;0.00;0.00;;;;;;;;;;4998936;28;20060;-88
2023/04/13 08:37:52;;;;;;;0.00;0.00;;;;;;;;;;5016104;28;20056;-88
2023/04/13 08:40:19;;;;;;;0.00;0.00;;;;;;;;;;4999094;28;20041;-89
2023/04/13 08:42:46;;;;;;;0.00;0.00;;;;;;;;;;5015451;28;20448;-87
2023/04/13 08:45:13;;;;;;;0.00;0.00;;;;;;;;;;4998898;28;20037;-89
2023/04/13 08:47:40;;;;;;;0.00;0.00;;;;;;;;;;5015600;28;20041;-88
2023/04/13 08:50:06;;;;;;;0.20;0.00;;;;;;;;;;4999122;28;20136;-87
2023/04/13 08:52:33;;;;;;;0.00;0.00;;;;;;;;;;4999046;28;20041;-88
2023/04/13 08:55:02;;;;;;;0.00;0.00;;;;;;;;;;5015090;28;20041;-88
2023/04/13 08:57:29;;;;;;;0.00;0.00;;;;;;;;;;4993930;28;20434;-89
2023/04/13 08:59:56;;;;;;;0.00;0.00;;;;;;;;;;4991559;28;20049;-88
2023/04/13 09:02:24;;;;;;;0.00;0.00;;;;;;;;;;4979147;28;20053;-87
2023/04/13 09:04:53;;;;;;;0.00;0.00;;;;;;;;;;4979377;28;20046;-88
2023/04/13 09:07:25;;;;;;;0.00;0.00;;;;;;;;;;5010990;28;20030;-87
2023/04/13 09:09:52;;;;;;;0.00;0.00;;;;;;;;;;4998945;28;20100;-87
2023/04/13 09:12:18;;;;;;;0.00;0.00;;;;;;;;;;5014907;28;20049;-88
2023/04/13 09:14:45;;;;;;;0.00;0.00;;;;;;;;;;4998512;28;20045;-87
2023/04/13 09:17:21;;;;;;;0.00;0.00;;;;;;;;;;4998794;28;20292;-87
2023/04/13 09:19:47;;;;;;;0.00;0.00;;;;;;;;;;5015299;28;20065;-86
2023/04/13 09:22:14;;;;;;;0.00;0.00;;;;;;;;;;5008106;28;20100;-87
2023/04/13 09:24:40;;;;;;;0.00;0.00;;;;;;;;;;4994085;28;20068;-88
2023/04/13 09:27:16;;;;;;;0.00;0.00;;;;;;;;;;4982532;28;20076;-87
2023/04/13 09:29:49;;;;;;;0.00;0.00;;;;;;;;;;4983632;28;20072;-87
2023/04/13 09:32:19;;;;;;;0.00;0.00;;;;;;;;;;4996614;28;20075;-87
2023/04/13 09:34:56;;;;;;;0.00;0.00;;;;;;;;;;4998541;28;20350;-87
2023/04/13 09:37:22;;;;;;;0.00;0.00;;;;;;;;;;5010758;28;20073;-87
2023/04/13 09:39:48;;;;;;;0.00;0.00;;;;;;;;;;4994975;28;20046;-88
2023/04/13 09:42:17;;;;;;;0.00;0.00;;;;;;;;;;4986503;28;20179;-87
2023/04/13 09:44:43;;;;;;;0.00;0.00;;;;;;;;;;4998923;28;20065;-87
2023/04/13 09:47:11;;;;;;;0.00;0.00;;;;;;;;;;4994496;28;20046;-86
2023/04/13 09:49:41;;;;;;;0.00;0.00;;;;;;;;;;4979172;28;20041;-86
2023/04/13 09:52:18;;;;;;;0.00;0.00;;;;;;;;;;4979237;28;20037;-86
2023/04/13 09:54:48;;;;;;;0.00;0.00;;;;;;;;;;5009924;28;20495;-87
2023/04/13 09:57:22;;;;;;;0.00;0.00;;;;;;;;;;4988713;28;20071;-87
2023/04/13 09:59:48;;;;;;;0.00;0.00;;;;;;;;;;4988579;28;20042;-87
2023/04/13 10:02:14;;;;;;;0.00;0.00;;;;;;;;;;4993971;28;20046;-89
2023/04/13 10:04:40;;;;;;;0.00;0.00;;;;;;;;;;4994313;28;20041;-87
2023/04/13 10:07:07;;;;;;;0.00;0.00;;;;;;;;;;4994340;28;20074;-88
2023/04/13 10:09:33;;;;;;;0.00;0.00;;;;;;;;;;4994528;28;20116;-87
2023/04/13 10:12:00;;;;;;;0.00;0.00;;;;;;;;;;4994537;28;20073;-87
2023/04/13 10:14:28;;;;;;;0.00;0.00;;;;;;;;;;4978275;28;20084;-87
2023/04/13 10:17:14;;;;;;;0.00;0.00;;;;;;;;;;4978326;28;20038;-88
2023/04/13 10:19:46;;;;;;;0.00;0.00;;;;;;;;;;4994933;28;20038;-87
2023/04/13 10:22:12;;;;;;;0.00;0.00;;;;;;;;;;4994315;28;20042;-87
2023/04/13 10:24:38;;;;;;;0.00;0.00;;;;;;;;;;4978701;28;20038;-87
2023/04/13 10:27:15;;;;;;;0.00;0.00;;;;;;;;;;4994563;28;20432;-86
2023/04/13 10:29:41;;;;;;;0.00;0.00;;;;;;;;;;4994726;28;20045;-87
2023/04/13 10:32:08;;;;;;;0.00;0.00;;;;;;;;;;4994728;28;20050;-90
2023/04/13 10:34:38;;;;;;;0.00;0.00;;;;;;;;;;4998581;28;20057;-88
2023/04/13 10:37:15;;;;;;;0.00;0.00;;;;;;;;;;4982083;28;20038;-90
2023/04/13 10:39:41;;;;;;;0.00;0.00;;;;;;;;;;4982173;28;20033;-89
2023/04/13 10:42:09;;;;;;;0.00;0.00;;;;;;;;;;4982157;28;20049;-91
2023/04/13 10:44:49;;;;;;;0.00;0.00;;;;;;;;;;4982788;28;20042;-90
2023/04/13 10:47:16;;;;;;;0.00;0.00;;;;;;;;;;4982165;28;20049;-90
2023/04/13 10:49:45;;;;;;;0.00;0.00;;;;;;;;;;4982141;28;20042;-90
2023/04/13 10:52:12;;;;;;;0.00;0.00;;;;;;;;;;4998162;28;20065;-90
2023/04/13 10:54:38;;;;;;;0.00;0.00;;;;;;;;;;4982130;28;20045;-90
2023/04/13 10:57:05;;;;;;;0.00;0.00;;;;;;;;;;4982131;28;20132;-89
2023/04/13 10:59:50;;;;;;;0.00;0.00;;;;;;;;;;4981903;28;20055;-91
2023/04/13 11:02:18;;;;;;;0.00;0.00;;;;;;;;;;4981752;28;20049;-89
2023/04/13 11:04:46;;;;;;;0.00;0.00;;;;;;;;;;4982059;28;20125;-89
2023/04/13 11:07:16;;;;;;;0.00;0.00;;;;;;;;;;4981700;28;20081;-89
2023/04/13 11:09:44;;;;;;;0.00;0.00;;;;;;;;;;4982462;28;20084;-90
2023/04/13 11:12:17;;;;;;;0.00;0.00;;;;;;;;;;4981599;28;20034;-90
2023/04/13 11:14:47;;;;;;;0.00;0.00;;;;;;;;;;4998484;28;20052;-89
2023/04/13 11:17:13;;;;;;;0.00;0.00;;;;;;;;;;4999025;28;20080;-90
2023/04/13 11:19:50;;;;;;;0.00;0.00;;;;;;;;;;4981517;28;20038;-91
2023/04/13 11:22:17;;;;;;;0.00;0.00;;;;;;;;;;4981322;28;20130;-89
2023/04/13 11:24:43;;;;;;;0.00;0.00;;;;;;;;;;4981602;28;20097;-91
2023/04/13 11:27:19;;;;;;;0.00;0.00;;;;;;;;;;4981536;28;20049;-89
2023/04/13 11:29:45;;;;;;;0.00;0.00;;;;;;;;;;4997963;28;20049;-90
2023/04/13 11:32:18;;;;;;;0.00;0.00;;;;;;;;;;4980894;28;20041;-90
2023/04/13 11:34:44;;;;;;;0.00;0.00;;;;;;;;;;4997860;28;20046;-88
2023/04/13 11:37:12;;;;;;;0.00;0.00;;;;;;;;;;4997325;28;20046;-89
2023/04/13 11:39:42;;;;;;;0.00;0.00;;;;;;;;;;4981394;28;20077;-89
2023/04/13 11:42:09;;;;;;;0.00;0.00;;;;;;;;;;4997540;28;20121;-89
2023/04/13 11:44:36;;;;;;;0.00;0.00;;;;;;;;;;4980896;28;20068;-90
2023/04/13 11:47:03;;;;;;;0.00;0.00;;;;;;;;;;4981280;28;20069;-88
2023/04/13 11:49:29;;;;;;;0.00;0.00;;;;;;;;;;4997497;28;20132;-89
2023/04/13 11:51:55;;;;;;;0.10;0.08;;;;;;;;;;4981951;28;20255;-87
2023/04/13 11:54:22;;;;;;;0.00;0.00;;;;;;;;;;4981496;28;20038;-90
2023/04/13 11:56:48;;;;;;;0.00;0.00;;;;;;;;;;4981309;28;20049;-91
2023/04/13 11:59:15;;;;;;;0.00;0.00;;;;;;;;;;4981502;28;20555;-91
2023/04/13 12:01:48;;;;;;;0.00;0.00;;;;;;;;;;4981659;28;20373;-91
2023/04/13 12:04:17;;;;;;;0.00;0.00;;;;;;;;;;4981954;28;20128;-91
2023/04/13 12:06:49;;;;;;;0.00;0.00;;;;;;;;;;4998253;28;20129;-92
2023/04/13 12:09:15;;;;;;;0.00;0.00;;;;;;;;;;4982180;28;20044;-92
2023/04/13 12:11:44;;;;;;;0.00;0.00;;;;;;;;;;4981421;28;20064;-92
2023/04/13 12:14:21;;;;;;;0.00;0.00;;;;;;;;;;4981168;28;20046;-91
2023/04/13 12:16:49;;;;;;;0.00;0.00;;;;;;;;;;4997691;28;20072;-91
2023/04/13 12:19:21;;;;;;;0.00;0.00;;;;;;;;;;4981306;28;20045;-92
2023/04/13 12:21:54;;;;;;;0.00;0.00;;;;;;;;;;4982219;28;20050;-94
2023/04/13 12:24:36;;;;;;;0.00;0.00;;;;;;;;;;4996952;28;20425;-92
2023/04/13 12:27:03;;;;;;;0.00;0.00;;;;;;;;;;4981228;28;20060;-91
2023/04/13 12:29:31;;;;;;;0.00;0.00;;;;;;;;;;4997352;28;20121;-92
2023/04/13 12:32:07;;;;;;;0.00;0.00;;;;;;;;;;4981192;28;20034;-92
2023/04/13 12:34:55;;;;;;;0.00;0.00;;;;;;;;;;4997432;28;20524;-92
2023/04/13 12:37:23;;;;;;;0.00;0.00;;;;;;;;;;4980821;28;20459;-92
2023/04/13 12:39:51;;;;;;;0.00;0.00;;;;;;;;;;4980969;28;20038;-91
2023/04/13 12:42:19;;;;;;;0.00;0.00;;;;;;;;;;4981065;28;20045;-93
2023/04/13 12:44:49;;;;;;;0.00;0.00;;;;;;;;;;4982331;28;20053;-91
2023/04/13 12:47:15;;;;;;;0.00;0.00;;;;;;;;;;4981808;28;20081;-93
2023/04/13 12:49:46;;;;;;;0.00;0.00;;;;;;;;;;4981843;28;20077;-91
2023/04/13 12:52:13;;;;;;;0.00;0.00;;;;;;;;;;4981001;28;20046;-90
2023/04/13 12:54:40;;;;;;;0.00;0.00;;;;;;;;;;4980851;28;20203;-93
2023/04/13 12:57:32;;;;;;;0.00;0.00;;;;;;;;;;4980772;28;20042;-93
2023/04/13 13:00:21;;;;;;;0.00;0.00;;;;;;;;;;4981086;28;20126;-92
2023/04/13 13:02:47;;;;;;;0.00;0.00;;;;;;;;;;4980338;28;20046;-92
2023/04/13 13:05:14;;;;;;;0.00;0.00;;;;;;;;;;4980482;28;20037;-91
2023/04/13 13:07:40;;;;;;;0.00;0.00;;;;;;;;;;4980574;28;20496;-90
2023/04/13 13:10:08;;;;;;;0.00;0.00;;;;;;;;;;4980618;28;20496;-91
2023/04/13 13:12:37;;;;;;;0.00;0.00;;;;;;;;;;4980449;28;20497;-90
2023/04/13 13:15:09;;;;;;;0.00;0.00;;;;;;;;;;4980690;28;20109;-91
2023/04/13 13:17:39;;;;;;;0.00;0.00;;;;;;;;;;4996778;28;20056;-91
2023/04/13 13:20:09;;;;;;;0.00;0.00;;;;;;;;;;4980669;28;20049;-90
2023/04/13 13:22:35;;;;;;;0.00;0.00;;;;;;;;;;4980826;28;20486;-91
2023/04/13 13:25:02;;;;;;;0.00;0.00;;;;;;;;;;4980821;28;20049;-91
2023/04/13 13:27:28;;;;;;;0.00;0.00;;;;;;;;;;4980138;28;20096;-89
2023/04/13 13:29:56;;;;;;;0.20;0.00;;;;;;;;;;4979690;28;20084;-90
2023/04/13 13:32:22;;;;;;;0.00;0.00;;;;;;;;;;4979980;28;20069;-90
2023/04/13 13:34:48;;;;;;;0.00;0.00;;;;;;;;;;4981009;28;20045;-92
2023/04/13 13:37:14;;;;;;;0.00;0.00;;;;;;;;;;4980245;28;20064;-90
2023/04/13 13:39:41;;;;;;;0.00;0.00;;;;;;;;;;4980339;28;20116;-91
2023/04/13 13:42:07;;;;;;;0.00;0.00;;;;;;;;;;4996815;28;20052;-90
2023/04/13 13:44:33;;;;;;;0.00;0.00;;;;;;;;;;4980140;28;20057;-90
2023/04/13 13:47:00;;;;;;;0.00;0.00;;;;;;;;;;4996554;28;20489;-89
2023/04/13 13:49:27;;;;;;;0.00;0.00;;;;;;;;;;4979516;28;20205;-90
2023/04/13 13:51:53;;;;;;;0.00;0.00;;;;;;;;;;4979640;28;20096;-92
2023/04/13 13:54:21;;;;;;;0.00;0.00;;;;;;;;;;4979164;28;20041;-91
2023/04/13 13:56:47;;;;;;;0.00;0.00;;;;;;;;;;4980405;28;20057;-91
2023/04/13 13:59:13;;;;;;;0.00;0.00;;;;;;;;;;4979483;28;20057;-91
2023/04/13 14:01:40;;;;;;;0.00;0.00;;;;;;;;;;4980200;28;20080;-90
2023/04/13 14:04:06;;;;;;;0.00;0.00;;;;;;;;;;4979116;28;20053;-88
2023/04/13 14:06:32;;;;;;;0.00;0.00;;;;;;;;;;4979678;28;20525;-90
2023/04/13 14:08:58;;;;;;;0.00;0.00;;;;;;;;;;4982422;28;20132;-89
2023/04/13 14:11:25;;;;;;;0.00;0.00;;;;;;;;;;4983752;28;20042;-92
2023/04/13 14:13:54;;;;;;;0.00;0.00;;;;;;;;;;4983221;28;20096;-91
2023/04/13 14:16:21;;;;;;;0.00;0.00;;;;;;;;;;4983170;28;20072;-91
2023/04/13 14:18:47;;;;;;;0.00;0.00;;;;;;;;;;4999633;28;20068;-90
2023/04/13 14:21:14;;;;;;;0.00;0.00;;;;;;;;;;4983441;28;20053;-89
2023/04/13 14:23:40;;;;;;;0.00;0.00;;;;;;;;;;4982814;28;20046;-91
2023/04/13 14:26:07;;;;;;;0.00;0.00;;;;;;;;;;4983148;28;20133;-91
2023/04/13 14:28:42;;;;;;;0.00;0.00;;;;;;;;;;4984121;28;20045;-91
2023/04/13 14:31:08;;;;;;;0.00;0.00;;;;;;;;;;4999791;28;20073;-89
2023/04/13 14:33:35;;;;;;;0.00;0.00;;;;;;;;;;4980093;28;20054;-89
2023/04/13 14:36:01;;;;;;;0.00;0.00;;;;;;;;;;4979548;28;20050;-89
2023/04/13 14:38:32;;;;;;;0.00;0.00;;;;;;;;;;4995450;28;20118;-91
2023/04/13 14:40:58;;;;;;;0.00;0.00;;;;;;;;;;4980110;28;20046;-92
2023/04/13 14:43:26;;;;;;;0.00;0.00;;;;;;;;;;4979755;28;20043;-91
2023/04/13 14:46:02;;;;;;;0.00;0.00;;;;;;;;;;4996543;28;20482;-91